createdAt,value
2023-01-22T00:00:41.039Z,4.50
2023-01-22T00:02:43.819Z,4.50
2023-01-22T00:04:46.590Z,4.40
2023-01-22T00:06:49.311Z,4.50
2023-01-22T00:08:52.631Z,4.30
2023-01-22T00:10:57.184Z,4.30
2023-01-22T00:12:59.904Z,4.30
2023-01-22T00:15:02.668Z,4.20
2023-01-22T00:17:05.412Z,4.30
2023-01-22T00:19:08.597Z,4.40
2023-01-22T00:21:12.467Z,4.20
2023-01-22T00:23:15.217Z,4.20
2023-01-22T00:25:18.059Z,4.10
2023-01-22T00:27:22.087Z,3.80
2023-01-22T00:29:24.844Z,3.90
2023-01-22T00:31:27.709Z,3.50
2023-01-22T00:33:30.836Z,3.40
2023-01-22T00:35:35.676Z,3.60
2023-01-22T00:37:38.464Z,3.80
2023-01-22T00:39:41.141Z,3.60
2023-01-22T00:41:44.061Z,3.80
2023-01-22T00:43:50.114Z,3.80
2023-01-22T00:45:54.547Z,4.00
2023-01-22T00:47:57.401Z,4.10
2023-01-22T00:50:00.677Z,3.90
2023-01-22T00:52:03.422Z,3.80
2023-01-22T00:54:06.294Z,3.60
2023-01-22T00:56:09.116Z,4.00
2023-01-22T00:58:11.868Z,3.20
2023-01-22T01:00:18.255Z,3.80
2023-01-22T01:02:21.381Z,3.80
2023-01-22T01:04:24.172Z,3.90
2023-01-22T01:06:26.879Z,3.70
2023-01-22T01:08:31.701Z,3.80
2023-01-22T01:10:34.498Z,3.80
2023-01-22T01:12:37.229Z,3.80
2023-01-22T01:14:39.939Z,4.00
2023-01-22T01:16:43.970Z,4.10
2023-01-22T01:18:47.588Z,4.10
2023-01-22T01:20:55.180Z,3.40
2023-01-22T01:22:57.986Z,3.90
2023-01-22T01:25:00.771Z,3.90
2023-01-22T01:27:03.676Z,4.10
2023-01-22T01:29:08.087Z,3.90
2023-01-22T01:31:12.993Z,3.70
2023-01-22T01:33:17.159Z,3.90
2023-01-22T01:35:20.022Z,3.70
2023-01-22T01:37:22.848Z,3.60
2023-01-22T01:39:25.588Z,3.60
2023-01-22T01:41:28.542Z,3.80
2023-01-22T01:43:31.483Z,3.60
2023-01-22T01:45:35.679Z,3.60
2023-01-22T01:47:38.441Z,3.70
2023-01-22T01:49:48.385Z,3.70
2023-01-22T01:51:53.183Z,3.60
2023-01-22T01:53:57.079Z,3.20
2023-01-22T01:56:02.540Z,3.00
2023-01-22T01:58:11.371Z,2.90
2023-01-22T02:00:15.685Z,3.10
2023-01-22T02:02:20.478Z,3.00
2023-01-22T02:04:24.823Z,2.90
2023-01-22T02:06:29.015Z,2.90
2023-01-22T02:08:32.047Z,3.00
2023-01-22T02:10:34.811Z,3.10
2023-01-22T02:12:37.566Z,3.00
2023-01-22T02:14:43.978Z,3.00
2023-01-22T02:16:46.787Z,3.10
2023-01-22T02:18:50.001Z,3.10
2023-01-22T02:20:56.647Z,3.20
2023-01-22T02:22:59.396Z,3.30
2023-01-22T02:25:02.805Z,3.40
2023-01-22T02:27:05.620Z,3.40
2023-01-22T02:29:09.928Z,3.60
2023-01-22T02:31:12.766Z,3.50
2023-01-22T02:33:16.222Z,3.40
2023-01-22T02:35:18.972Z,3.60
2023-01-22T02:37:23.070Z,3.60
2023-01-22T02:39:26.142Z,3.50
2023-01-22T02:41:29.476Z,3.50
2023-01-22T02:43:32.272Z,3.00
2023-01-22T02:45:35.009Z,3.40
2023-01-22T02:47:37.746Z,3.40
2023-01-22T02:49:40.486Z,3.50
2023-01-22T02:51:43.212Z,3.50
2023-01-22T02:53:47.288Z,3.40
2023-01-22T02:55:50.319Z,3.30
2023-01-22T02:57:53.228Z,3.50
2023-01-22T02:59:55.942Z,3.30
2023-01-22T03:01:58.707Z,3.40
2023-01-22T03:04:10.610Z,3.30
2023-01-22T03:06:15.652Z,3.20
2023-01-22T03:08:19.756Z,3.30
2023-01-22T03:10:23.809Z,3.60
2023-01-22T03:12:26.653Z,3.50
2023-01-22T03:14:46.865Z,3.60
2023-01-22T03:17:07.468Z,3.50
2023-01-22T03:19:27.956Z,3.60
2023-01-22T03:21:30.719Z,3.40
2023-01-22T03:23:33.457Z,3.50
2023-01-22T03:25:37.583Z,3.60
2023-01-22T03:28:00.933Z,3.80
2023-01-22T03:30:03.735Z,3.90
2023-01-22T03:32:06.940Z,3.70
2023-01-22T03:34:09.754Z,3.70
2023-01-22T03:36:14.409Z,3.90
2023-01-22T03:38:17.165Z,4.10
2023-01-22T03:40:20.162Z,4.00
2023-01-22T03:42:25.523Z,4.10
2023-01-22T03:44:28.223Z,4.10
2023-01-22T03:46:31.660Z,3.80
2023-01-22T03:48:34.691Z,3.80
2023-01-22T03:50:37.787Z,3.90
2023-01-22T03:52:40.565Z,3.70
2023-01-22T03:54:43.263Z,3.80
2023-01-22T03:56:46.052Z,4.00
2023-01-22T03:58:50.898Z,4.00
2023-01-22T04:00:57.552Z,3.60
2023-01-22T04:03:00.352Z,3.60
2023-01-22T04:05:03.095Z,3.60
2023-01-22T04:07:05.807Z,3.70
2023-01-22T04:09:08.640Z,3.70
2023-01-22T04:11:12.389Z,3.80
2023-01-22T04:13:15.221Z,3.70
2023-01-22T04:15:19.322Z,3.70
2023-01-22T04:17:22.041Z,3.80
2023-01-22T04:19:24.808Z,4.00
2023-01-22T04:21:27.523Z,3.60
2023-01-22T04:23:30.477Z,3.70
2023-01-22T04:25:33.204Z,3.70
2023-01-22T04:27:37.860Z,3.70
2023-01-22T04:29:40.599Z,3.40
2023-01-22T04:31:44.750Z,3.60
2023-01-22T04:33:47.508Z,3.60
2023-01-22T04:35:51.859Z,3.50
2023-01-22T04:37:54.611Z,3.30
2023-01-22T04:39:57.342Z,3.10
2023-01-22T04:42:00.149Z,3.40
2023-01-22T04:44:02.926Z,3.50
2023-01-22T04:46:05.901Z,3.60
2023-01-22T04:48:11.092Z,3.70
2023-01-22T04:50:17.608Z,3.80
2023-01-22T04:52:20.476Z,4.00
2023-01-22T04:54:23.202Z,4.00
2023-01-22T04:56:26.043Z,3.90
2023-01-22T04:58:28.775Z,4.10
2023-01-22T05:00:32.304Z,4.10
2023-01-22T05:02:35.163Z,4.10
2023-01-22T05:04:39.225Z,4.20
2023-01-22T05:06:42.031Z,4.20
2023-01-22T05:08:44.839Z,4.30
2023-01-22T05:10:47.565Z,4.10
2023-01-22T05:12:51.254Z,3.70
2023-01-22T05:14:54.143Z,3.70
2023-01-22T05:16:56.907Z,3.80
2023-01-22T05:18:59.689Z,3.70
2023-01-22T05:21:03.847Z,3.60
2023-01-22T05:23:06.585Z,3.70
2023-01-22T05:25:09.896Z,3.70
2023-01-22T05:27:12.706Z,3.50
2023-01-22T05:29:15.542Z,3.50
2023-01-22T05:31:18.379Z,3.80
2023-01-22T05:33:21.204Z,3.70
2023-01-22T05:35:24.106Z,3.70
2023-01-22T05:37:28.257Z,3.90
2023-01-22T05:39:31.247Z,3.80
2023-01-22T05:41:33.972Z,3.90
2023-01-22T05:43:38.178Z,3.80
2023-01-22T05:45:40.885Z,4.00
2023-01-22T05:47:43.913Z,3.90
2023-01-22T05:49:46.916Z,4.00
2023-01-22T05:51:49.672Z,3.70
2023-01-22T05:53:53.724Z,3.40
2023-01-22T05:55:56.463Z,3.40
2023-01-22T05:57:59.301Z,3.30
2023-01-22T06:00:02.057Z,3.50
2023-01-22T06:02:04.964Z,3.60
2023-01-22T06:04:07.698Z,3.80
2023-01-22T06:06:13.349Z,3.90
2023-01-22T06:08:16.084Z,4.00
2023-01-22T06:10:20.965Z,4.30
2023-01-22T06:12:24.015Z,4.20
2023-01-22T06:14:26.754Z,4.10
2023-01-22T06:16:29.476Z,4.00
2023-01-22T06:18:32.347Z,4.10
2023-01-22T06:20:36.658Z,4.00
2023-01-22T06:22:39.410Z,3.80
2023-01-22T06:24:42.105Z,4.00
2023-01-22T06:26:46.185Z,4.20
2023-01-22T06:28:48.906Z,4.20
2023-01-22T06:30:51.939Z,4.20
2023-01-22T06:32:55.003Z,4.10
2023-01-22T06:34:57.738Z,4.30
2023-01-22T06:37:00.796Z,4.40
2023-01-22T06:39:03.605Z,4.40
2023-01-22T06:41:06.347Z,4.50
2023-01-22T06:43:10.775Z,4.50
2023-01-22T06:45:13.623Z,4.60
2023-01-22T06:47:16.328Z,4.50
2023-01-22T06:49:19.044Z,4.40
2023-01-22T06:51:21.808Z,4.50
2023-01-22T06:53:24.601Z,4.30
2023-01-22T06:55:27.370Z,4.50
2023-01-22T06:57:30.141Z,4.70
2023-01-22T06:59:36.280Z,4.60
2023-01-22T07:01:39.878Z,4.60
2023-01-22T07:03:42.770Z,4.60
2023-01-22T07:05:45.597Z,4.60
2023-01-22T07:07:48.517Z,4.50
2023-01-22T07:09:51.364Z,4.50
2023-01-22T07:11:54.230Z,4.60
2023-01-22T07:13:56.943Z,4.50
2023-01-22T07:16:03.815Z,4.30
2023-01-22T07:18:06.717Z,4.00
2023-01-22T07:20:11.002Z,4.10
2023-01-22T07:22:13.742Z,4.00
2023-01-22T07:24:16.958Z,4.00
2023-01-22T07:26:19.695Z,4.20
2023-01-22T07:28:22.479Z,4.20
2023-01-22T07:30:25.270Z,4.30
2023-01-22T07:32:29.359Z,4.60
2023-01-22T07:34:32.100Z,4.70
2023-01-22T07:36:34.879Z,4.80
2023-01-22T07:38:37.679Z,4.70
2023-01-22T07:40:40.437Z,4.70
2023-01-22T07:42:43.170Z,4.70
2023-01-22T07:44:45.897Z,4.90
2023-01-22T07:46:48.672Z,5.10
2023-01-22T07:48:52.799Z,4.70
2023-01-22T07:50:55.504Z,4.80
2023-01-22T07:53:00.591Z,4.80
2023-01-22T07:55:03.365Z,4.80
2023-01-22T07:57:06.260Z,4.90
2023-01-22T07:59:08.986Z,5.00
2023-01-22T08:01:11.928Z,5.20
2023-01-22T08:03:15.194Z,5.20
2023-01-22T08:05:19.480Z,5.20
2023-01-22T08:07:23.363Z,5.20
2023-01-22T08:09:26.085Z,5.10
2023-01-22T08:11:29.334Z,5.00
2023-01-22T08:13:32.434Z,5.20
2023-01-22T08:15:35.551Z,5.40
2023-01-22T08:17:39.072Z,5.50
2023-01-22T08:19:41.798Z,5.70
2023-01-22T08:21:45.865Z,5.70
2023-01-22T08:23:49.372Z,5.50
2023-01-22T08:25:52.161Z,5.60
2023-01-22T08:27:55.141Z,5.60
2023-01-22T08:29:57.855Z,5.70
2023-01-22T08:32:00.684Z,5.50
2023-01-22T08:34:03.608Z,5.70
2023-01-22T08:36:07.724Z,5.80
2023-01-22T08:38:11.836Z,6.00
2023-01-22T08:40:15.177Z,6.10
2023-01-22T08:42:18.120Z,6.30
2023-01-22T08:44:20.816Z,6.50
2023-01-22T08:46:23.538Z,6.50
2023-01-22T08:48:26.347Z,6.70
2023-01-22T08:50:29.660Z,6.80
2023-01-22T08:52:32.432Z,6.90
2023-01-22T08:54:36.483Z,7.00
2023-01-22T08:56:39.230Z,7.00
2023-01-22T08:58:42.260Z,7.10
2023-01-22T09:00:45.409Z,7.30
2023-01-22T09:02:48.228Z,7.40
2023-01-22T09:04:50.932Z,7.60
2023-01-22T09:06:53.850Z,7.80
2023-01-22T09:08:57.004Z,7.80
2023-01-22T09:11:01.044Z,7.90
2023-01-22T09:13:03.920Z,8.00
2023-01-22T09:15:09.210Z,8.00
2023-01-22T09:17:11.968Z,8.10
2023-01-22T09:19:14.745Z,8.30
2023-01-22T09:21:17.454Z,8.40
2023-01-22T09:23:22.238Z,8.30
2023-01-22T09:25:26.253Z,8.30
2023-01-22T09:27:30.494Z,8.30
2023-01-22T09:29:33.298Z,8.30
2023-01-22T09:31:37.721Z,8.30
2023-01-22T09:33:40.640Z,8.20
2023-01-22T09:35:43.362Z,8.10
2023-01-22T09:37:46.092Z,7.90
2023-01-22T09:39:50.310Z,7.90
2023-01-22T09:41:57.934Z,7.70
2023-01-22T09:44:06.122Z,7.70
2023-01-22T09:46:20.676Z,7.70
2023-01-22T09:48:27.980Z,7.70
2023-01-22T09:50:33.314Z,7.60
2023-01-22T09:52:39.643Z,7.60
2023-01-22T09:54:43.747Z,7.60
2023-01-22T09:56:49.921Z,7.50
2023-01-22T09:58:53.890Z,7.50
2023-01-22T10:01:01.985Z,7.50
2023-01-22T10:03:08.578Z,7.50
2023-01-22T10:05:20.832Z,7.40
2023-01-22T10:07:29.120Z,7.40
2023-01-22T10:09:34.840Z,7.40
2023-01-22T10:11:38.907Z,7.40
2023-01-22T10:13:41.710Z,7.40
2023-01-22T10:15:44.843Z,7.30
2023-01-22T10:17:49.189Z,7.30
2023-01-22T10:19:55.956Z,7.30
2023-01-22T10:22:01.914Z,7.40
2023-01-22T10:24:04.845Z,7.40
2023-01-22T10:26:17.173Z,7.40
2023-01-22T10:28:26.673Z,7.40
2023-01-22T10:30:30.612Z,7.40
2023-01-22T10:32:33.606Z,7.40
2023-01-22T10:34:38.332Z,7.40
2023-01-22T10:36:41.412Z,7.40
2023-01-22T10:38:44.132Z,7.50
2023-01-22T10:40:46.827Z,7.30
2023-01-22T10:43:01.331Z,7.30
2023-01-22T10:45:16.316Z,7.30
2023-01-22T10:47:21.071Z,7.30
2023-01-22T10:49:25.580Z,7.30
2023-01-22T10:51:33.529Z,7.30
2023-01-22T10:53:39.142Z,7.40
2023-01-22T10:55:43.904Z,7.40
2023-01-22T10:57:53.405Z,7.40
2023-01-22T11:00:00.484Z,7.50
2023-01-22T11:02:12.204Z,7.60
2023-01-22T11:04:15.763Z,7.50
2023-01-22T11:06:21.701Z,7.50
2023-01-22T11:08:30.733Z,7.40
2023-01-22T11:10:45.971Z,7.50
2023-01-22T11:12:52.038Z,7.60
2023-01-22T11:15:04.596Z,7.50
2023-01-22T11:17:17.359Z,7.50
2023-01-22T11:19:36.594Z,7.60
2023-01-22T11:21:45.808Z,7.60
2023-01-22T11:23:55.120Z,7.60
2023-01-22T11:26:08.539Z,7.70
2023-01-22T11:28:25.618Z,7.60
2023-01-22T11:30:47.036Z,7.60
2023-01-22T11:33:00.095Z,7.60
2023-01-22T11:35:14.386Z,7.50
2023-01-22T11:37:20.281Z,7.40
2023-01-22T11:39:40.569Z,7.50
2023-01-22T11:41:56.314Z,7.40
2023-01-22T11:44:31.865Z,7.40
2023-01-22T11:46:50.744Z,7.60
2023-01-22T11:49:05.655Z,7.60
2023-01-22T11:51:16.653Z,7.70
2023-01-22T11:53:41.512Z,7.60
2023-01-22T11:55:56.495Z,7.70
2023-01-22T11:58:08.056Z,7.70
2023-01-22T12:00:27.155Z,7.80
2023-01-22T12:02:45.229Z,7.80
2023-01-22T12:05:12.481Z,7.80
2023-01-22T12:07:45.178Z,7.70
2023-01-22T12:09:55.532Z,7.10
2023-01-22T12:12:12.396Z,7.20
2023-01-22T12:14:27.637Z,7.30
2023-01-22T12:16:36.244Z,7.30
2023-01-22T12:19:07.443Z,7.30
2023-01-22T12:21:15.076Z,7.40
2023-01-22T12:23:23.328Z,7.50
2023-01-22T12:25:37.159Z,7.50
2023-01-22T12:27:47.329Z,7.60
2023-01-22T12:29:56.181Z,7.60
2023-01-22T12:32:04.903Z,7.60
2023-01-22T12:34:17.744Z,7.60
2023-01-22T12:36:23.811Z,7.50
2023-01-22T12:38:37.318Z,7.40
2023-01-22T12:40:57.585Z,7.50
2023-01-22T12:43:03.575Z,7.60
2023-01-22T12:45:21.649Z,7.60
2023-01-22T12:47:30.425Z,7.70
2023-01-22T12:49:33.279Z,7.70
2023-01-22T12:51:39.920Z,7.80
2023-01-22T12:53:42.630Z,7.60
2023-01-22T12:55:45.484Z,7.60
2023-01-22T12:57:48.271Z,7.50
2023-01-22T12:59:53.914Z,7.30
2023-01-22T13:02:00.409Z,7.30
2023-01-22T13:04:06.719Z,7.40
2023-01-22T13:06:19.797Z,7.30
2023-01-22T13:08:27.640Z,7.30
2023-01-22T13:10:32.385Z,7.30
2023-01-22T13:12:43.641Z,7.40
2023-01-22T13:14:46.512Z,7.40
2023-01-22T13:16:56.356Z,7.40
2023-01-22T13:19:00.790Z,7.30
2023-01-22T13:21:06.620Z,7.30
2023-01-22T13:23:14.732Z,7.30
2023-01-22T13:25:26.232Z,7.50
2023-01-22T13:27:31.465Z,7.50
2023-01-22T13:29:39.616Z,7.40
2023-01-22T13:31:51.256Z,7.30
2023-01-22T13:33:58.127Z,7.40
2023-01-22T13:36:10.708Z,7.30
2023-01-22T13:38:19.818Z,7.30
2023-01-22T13:40:25.241Z,7.30
2023-01-22T13:42:29.566Z,7.40
2023-01-22T13:44:36.058Z,7.40
2023-01-22T13:46:39.579Z,6.40
2023-01-22T13:48:43.004Z,6.80
2023-01-22T13:50:56.066Z,6.90
2023-01-22T13:52:59.720Z,7.00
2023-01-22T13:55:05.334Z,7.00
2023-01-22T13:57:08.100Z,7.10
2023-01-22T13:59:21.486Z,6.90
2023-01-22T14:01:29.957Z,6.90
2023-01-22T14:03:32.766Z,7.00
2023-01-22T14:05:37.055Z,6.90
2023-01-22T14:07:41.930Z,7.00
2023-01-22T14:09:44.898Z,7.00
2023-01-22T14:11:49.977Z,7.10
2023-01-22T14:13:54.356Z,7.10
2023-01-22T14:15:59.414Z,6.90
2023-01-22T14:18:10.285Z,6.90
2023-01-22T14:20:13.548Z,6.90
2023-01-22T14:22:16.630Z,6.80
2023-01-22T14:24:21.977Z,6.70
2023-01-22T14:26:25.205Z,6.60
2023-01-22T14:28:31.277Z,6.60
2023-01-22T14:30:34.316Z,6.60
2023-01-22T14:32:37.093Z,6.70
2023-01-22T14:34:39.844Z,6.70
2023-01-22T14:36:44.861Z,6.70
2023-01-22T14:38:48.679Z,6.60
2023-01-22T14:40:53.033Z,6.60
2023-01-22T14:42:55.793Z,6.50
2023-01-22T14:44:58.554Z,6.60
2023-01-22T14:47:01.269Z,6.60
2023-01-22T14:49:05.443Z,6.60
2023-01-22T14:51:12.223Z,6.60
2023-01-22T14:53:15.618Z,6.60
2023-01-22T14:55:19.314Z,6.60
2023-01-22T14:57:23.551Z,6.60
2023-01-22T14:59:26.315Z,6.60
2023-01-22T15:01:29.057Z,6.60
2023-01-22T15:03:32.678Z,6.70
2023-01-22T15:05:35.926Z,6.80
2023-01-22T15:07:39.368Z,6.70
2023-01-22T15:09:43.089Z,6.70
2023-01-22T15:11:46.312Z,6.70
2023-01-22T15:13:52.676Z,6.60
2023-01-22T15:15:55.458Z,6.60
2023-01-22T15:17:58.903Z,6.50
2023-01-22T15:20:01.670Z,6.50
2023-01-22T15:22:04.453Z,6.50
2023-01-22T15:24:07.909Z,6.60
2023-01-22T15:26:35.324Z,6.40
2023-01-22T15:28:38.054Z,6.40
2023-01-22T15:30:46.752Z,6.40
2023-01-22T15:32:49.541Z,6.40
2023-01-22T15:34:52.322Z,6.40
2023-01-22T15:36:55.155Z,6.30
2023-01-22T15:38:58.337Z,6.20
2023-01-22T15:41:05.769Z,6.20
2023-01-22T15:43:08.637Z,6.20
2023-01-22T15:45:12.051Z,6.10
2023-01-22T15:47:16.067Z,6.20
2023-01-22T15:49:18.809Z,6.20
2023-01-22T15:51:22.468Z,6.20
2023-01-22T15:53:25.541Z,6.30
2023-01-22T15:55:28.291Z,6.40
2023-01-22T15:57:31.104Z,6.40
2023-01-22T15:59:33.808Z,6.30
2023-01-22T16:01:36.579Z,6.30
2023-01-22T16:03:40.718Z,6.30
2023-01-22T16:05:43.413Z,6.20
2023-01-22T16:07:46.355Z,6.30
2023-01-22T16:09:49.811Z,6.20
2023-01-22T16:11:52.984Z,6.00
2023-01-22T16:13:55.857Z,5.90
2023-01-22T16:15:59.626Z,5.80
2023-01-22T16:18:02.362Z,5.90
2023-01-22T16:20:09.893Z,5.90
2023-01-22T16:22:12.916Z,6.00
2023-01-22T16:24:15.879Z,6.10
2023-01-22T16:26:20.899Z,6.10
2023-01-22T16:28:23.892Z,6.10
2023-01-22T16:30:26.661Z,5.90
2023-01-22T16:32:29.425Z,6.00
2023-01-22T16:34:32.328Z,6.20
2023-01-22T16:36:37.213Z,6.20
2023-01-22T16:38:41.149Z,6.20
2023-01-22T16:40:43.902Z,6.20
2023-01-22T16:42:59.318Z,5.90
2023-01-22T16:45:02.045Z,5.90
2023-01-22T16:47:04.912Z,5.90
2023-01-22T16:49:09.183Z,6.00
2023-01-22T16:51:18.166Z,6.10
2023-01-22T16:53:22.228Z,6.10
2023-01-22T16:55:25.130Z,6.10
2023-01-22T16:57:27.961Z,6.10
2023-01-22T16:59:31.629Z,6.20
2023-01-22T17:01:34.948Z,6.10
2023-01-22T17:03:37.717Z,6.10
2023-01-22T17:05:40.517Z,6.10
2023-01-22T17:07:43.246Z,6.10
2023-01-22T17:09:47.290Z,6.20
2023-01-22T17:11:51.008Z,6.00
2023-01-22T17:13:55.075Z,6.00
2023-01-22T17:15:57.862Z,6.00
2023-01-22T17:18:00.637Z,5.90
2023-01-22T17:20:03.628Z,5.90
2023-01-22T17:22:06.504Z,6.00
2023-01-22T17:24:10.456Z,5.90
2023-01-22T17:26:16.319Z,5.90
2023-01-22T17:28:19.158Z,6.00
2023-01-22T17:30:22.125Z,6.00
2023-01-22T17:32:26.413Z,6.00
2023-01-22T17:34:31.463Z,6.10
2023-01-22T17:36:34.212Z,6.10
2023-01-22T17:38:38.747Z,6.10
2023-01-22T17:40:42.210Z,6.00
2023-01-22T17:42:46.318Z,5.90
2023-01-22T17:44:49.051Z,6.00
2023-01-22T17:46:54.747Z,6.10
2023-01-22T17:48:57.569Z,6.00
2023-01-22T17:51:04.151Z,5.90
2023-01-22T17:53:06.940Z,6.00
2023-01-22T17:55:10.599Z,6.10
2023-01-22T17:57:13.315Z,6.10
2023-01-22T17:59:18.517Z,6.10
2023-01-22T18:01:23.671Z,6.00
2023-01-22T18:03:26.480Z,6.00
2023-01-22T18:05:29.252Z,6.00
2023-01-22T18:07:32.024Z,5.90
2023-01-22T18:09:34.778Z,5.90
2023-01-22T18:11:38.375Z,6.00
2023-01-22T18:13:41.304Z,5.90
2023-01-22T18:15:47.755Z,5.90
2023-01-22T18:17:51.701Z,5.90
2023-01-22T18:19:54.454Z,6.00
2023-01-22T18:21:57.248Z,6.00
2023-01-22T18:24:01.059Z,5.90
2023-01-22T18:26:05.479Z,5.80
2023-01-22T18:28:08.210Z,5.70
2023-01-22T18:30:12.267Z,5.80
2023-01-22T18:32:16.385Z,5.80
2023-01-22T18:34:19.188Z,5.80
2023-01-22T18:36:25.927Z,5.80
2023-01-22T18:38:28.708Z,5.80
2023-01-22T18:40:31.891Z,5.90
2023-01-22T18:42:34.634Z,5.80
2023-01-22T18:44:39.274Z,5.80
2023-01-22T18:46:45.172Z,5.80
2023-01-22T18:48:53.947Z,5.80
2023-01-22T18:50:56.712Z,5.70
2023-01-22T18:53:00.774Z,5.70
2023-01-22T18:55:03.540Z,5.70
2023-01-22T18:57:06.271Z,5.90
2023-01-22T18:59:09.772Z,5.80
2023-01-22T19:01:14.075Z,5.80
2023-01-22T19:03:16.876Z,5.70
2023-01-22T19:05:21.226Z,5.70
2023-01-22T19:07:24.202Z,5.70
2023-01-22T19:09:27.735Z,5.70
2023-01-22T19:11:31.996Z,5.70
2023-01-22T19:13:36.016Z,5.70
2023-01-22T19:15:39.357Z,5.70
2023-01-22T19:17:42.137Z,5.70
2023-01-22T19:19:44.829Z,5.80
2023-01-22T19:21:52.753Z,5.80
2023-01-22T19:23:57.245Z,5.80
2023-01-22T19:26:08.461Z,5.80
2023-01-22T19:28:11.398Z,5.80
2023-01-22T19:30:14.797Z,5.70
2023-01-22T19:32:22.142Z,5.70
2023-01-22T19:34:25.733Z,5.70
2023-01-22T19:36:31.076Z,5.70
2023-01-22T19:38:35.208Z,5.70
2023-01-22T19:40:39.318Z,5.70
2023-01-22T19:42:46.256Z,5.70
2023-01-22T19:44:49.069Z,5.70
2023-01-22T19:46:51.881Z,5.70
2023-01-22T19:48:55.007Z,5.60
2023-01-22T19:51:00.989Z,5.60
2023-01-22T19:53:03.731Z,5.60
2023-01-22T19:55:08.412Z,5.60
2023-01-22T19:57:11.911Z,5.70
2023-01-22T19:59:16.710Z,5.70
2023-01-22T20:01:20.133Z,5.80
2023-01-22T20:03:23.434Z,5.80
2023-01-22T20:05:26.163Z,5.90
2023-01-22T20:07:28.943Z,5.90
2023-01-22T20:09:32.859Z,5.90
2023-01-22T20:11:36.937Z,5.90
2023-01-22T20:13:39.980Z,5.80
2023-01-22T20:15:43.578Z,5.90
2023-01-22T20:17:46.313Z,5.90
2023-01-22T20:19:49.039Z,6.00
2023-01-22T20:21:51.777Z,6.00
2023-01-22T20:23:54.564Z,6.00
2023-01-22T20:25:59.007Z,6.00
2023-01-22T20:28:03.075Z,6.00
2023-01-22T20:30:06.987Z,6.00
2023-01-22T20:32:09.721Z,6.00
2023-01-22T20:34:12.499Z,6.10
2023-01-22T20:36:15.811Z,6.10
2023-01-22T20:38:18.558Z,5.90
2023-01-22T20:40:21.411Z,6.00
2023-01-22T20:42:24.158Z,6.00
2023-01-22T20:44:28.439Z,6.10
2023-01-22T20:46:31.165Z,6.10
2023-01-22T20:48:35.881Z,6.20
2023-01-22T20:50:41.660Z,6.20
2023-01-22T20:52:44.477Z,6.00
2023-01-22T20:55:00.923Z,5.80
2023-01-22T20:57:04.383Z,5.70
2023-01-22T20:59:10.718Z,5.30
2023-01-22T21:01:19.027Z,5.30
2023-01-22T21:03:24.102Z,5.40
2023-01-22T21:05:27.151Z,5.60
2023-01-22T21:07:29.906Z,5.70
2023-01-22T21:09:32.859Z,5.80
2023-01-22T21:11:37.084Z,5.90
2023-01-22T21:13:40.211Z,5.50
2023-01-22T21:15:42.910Z,5.50
2023-01-22T21:17:46.991Z,5.60
2023-01-22T21:19:51.571Z,5.40
2023-01-22T21:21:55.427Z,5.50
2023-01-22T21:23:59.012Z,5.60
2023-01-22T21:26:05.282Z,5.70
2023-01-22T21:28:08.072Z,5.50
2023-01-22T21:30:12.145Z,5.60
2023-01-22T21:32:15.272Z,5.70
2023-01-22T21:34:23.441Z,5.70
2023-01-22T21:36:26.209Z,5.80
2023-01-22T21:38:29.107Z,5.60
2023-01-22T21:40:32.062Z,5.60
2023-01-22T21:42:52.494Z,5.70
2023-01-22T21:45:12.578Z,5.70
2023-01-22T21:47:15.324Z,5.70
2023-01-22T21:49:24.338Z,5.70
2023-01-22T21:51:27.719Z,5.70
2023-01-22T21:53:30.451Z,5.80
2023-01-22T21:55:33.186Z,5.70
2023-01-22T21:57:36.013Z,5.70
2023-01-22T21:59:38.834Z,5.70
2023-01-22T22:01:42.724Z,5.70
2023-01-22T22:03:45.516Z,5.80
2023-01-22T22:05:57.524Z,5.80
2023-01-22T22:08:02.893Z,5.80
2023-01-22T22:10:07.386Z,5.80
2023-01-22T22:12:11.553Z,5.90
2023-01-22T22:14:16.673Z,5.80
2023-01-22T22:16:19.546Z,5.80
2023-01-22T22:18:22.293Z,5.70
2023-01-22T22:20:25.011Z,5.70
2023-01-22T22:22:29.057Z,5.80
2023-01-22T22:24:34.914Z,5.90
2023-01-22T22:26:38.497Z,5.80
2023-01-22T22:28:41.301Z,5.80
2023-01-22T22:30:44.339Z,5.70
2023-01-22T22:32:47.174Z,5.70
2023-01-22T22:34:50.311Z,5.70
2023-01-22T22:36:53.025Z,5.80
2023-01-22T22:38:57.269Z,5.80
2023-01-22T22:41:02.126Z,5.70
2023-01-22T22:43:04.902Z,5.70
2023-01-22T22:45:08.820Z,5.70
2023-01-22T22:47:11.565Z,5.70
2023-01-22T22:49:15.353Z,5.70
2023-01-22T22:51:21.174Z,5.70
2023-01-22T22:53:23.997Z,5.70
2023-01-22T22:55:28.689Z,5.60
2023-01-22T22:57:31.463Z,5.60
2023-01-22T22:59:34.306Z,5.70
2023-01-22T23:01:37.763Z,5.70
2023-01-22T23:03:41.515Z,5.80
2023-01-22T23:05:44.266Z,5.80
2023-01-22T23:07:47.025Z,5.80
2023-01-22T23:09:49.753Z,5.90
2023-01-22T23:11:56.007Z,6.00
2023-01-22T23:14:01.398Z,5.90
2023-01-22T23:16:05.907Z,5.80
2023-01-22T23:18:08.988Z,5.90
2023-01-22T23:20:13.469Z,5.90
2023-01-22T23:22:16.535Z,6.00
2023-01-22T23:24:19.474Z,5.90
2023-01-22T23:26:28.130Z,6.00
2023-01-22T23:28:32.378Z,6.00
2023-01-22T23:30:36.169Z,6.00
2023-01-22T23:32:39.118Z,6.00
2023-01-22T23:34:41.832Z,6.00
2023-01-22T23:36:46.261Z,5.90
2023-01-22T23:38:49.643Z,5.90
2023-01-22T23:40:57.390Z,6.00
2023-01-22T23:43:00.329Z,6.10
2023-01-22T23:45:05.074Z,6.10
2023-01-22T23:47:07.821Z,6.00
2023-01-22T23:49:11.755Z,6.00
2023-01-22T23:51:16.239Z,6.00
2023-01-22T23:53:19.290Z,5.90
2023-01-22T23:55:22.106Z,5.80
2023-01-22T23:57:24.891Z,5.80
2023-01-22T23:59:27.647Z,5.90
